Time;durP1;ratioP1;P1;durP2;ratioP2;P2;SDS_P1;SDS_P2;PMS_P1;PMS_P2;Temp;Humidity;BMP_temperature;BMP_pressure;BME280_temperature;BME280_humidity;BME280_pressure;Samples;Min_cycle;Max_cycle;Signal;HPM_P1;HPM_P2
2021/07/24 00:01:08;;;;;;;7.55;3.67;;;;;;;17.61;61.05;98752.97;5014775;28;20385;-68
2021/07/24 00:03:35;;;;;;;9.20;3.88;;;;;;;17.64;61.14;98760.59;5031232;28;20041;-68
2021/07/24 00:06:01;;;;;;;5.38;3.70;;;;;;;17.66;61.01;98773.78;5031183;28;20588;-67
2021/07/24 00:08:26;;;;;;;9.13;3.88;;;;;;;17.65;61.11;98764.09;5032388;28;20041;-67
2021/07/24 00:10:53;;;;;;;9.93;3.42;;;;;;;17.61;61.13;98754.81;5032355;28;20362;-68
2021/07/24 00:13:19;;;;;;;6.88;3.33;;;;;;;17.66;61.18;98765.72;5030256;28;20049;-68
2021/07/24 00:15:45;;;;;;;7.35;3.38;;;;;;;17.56;60.89;98743.97;5032482;28;20078;-68
2021/07/24 00:18:11;;;;;;;5.15;3.42;;;;;;;17.65;60.86;98766.78;5032032;28;20034;-68
2021/07/24 00:20:37;;;;;;;7.43;3.78;;;;;;;17.56;60.86;98757.38;5032211;28;20523;-68
2021/07/24 00:23:03;;;;;;;7.15;3.38;;;;;;;17.65;60.76;98764.09;5030833;28;20048;-68
2021/07/24 00:25:29;;;;;;;6.30;3.38;;;;;;;17.65;60.90;98769.47;5030874;28;20029;-68
2021/07/24 00:27:55;;;;;;;7.88;3.55;;;;;;;17.64;60.62;98771.31;5031927;28;20085;-67
2021/07/24 00:30:21;;;;;;;8.02;3.35;;;;;;;17.65;60.44;98772.94;5031639;28;20056;-68
2021/07/24 00:32:54;;;;;;;7.10;3.03;;;;;;;17.65;60.28;98777.53;5031807;28;20050;-68
2021/07/24 00:35:19;;;;;;;6.00;3.22;;;;;;;17.63;60.44;98777.75;5030623;28;20120;-68
2021/07/24 00:37:45;;;;;;;5.97;3.42;;;;;;;17.62;60.34;98781.47;5032081;28;20044;-67
2021/07/24 00:40:14;;;;;;;4.35;3.00;;;;;;;17.55;60.43;98769.97;5031626;28;20033;-67
2021/07/24 00:42:44;;;;;;;7.15;3.28;;;;;;;17.64;60.50;98783.91;5030591;28;20067;-68
2021/07/24 00:45:14;;;;;;;6.53;2.80;;;;;;;17.60;60.15;98786.25;5030420;28;20038;-67
2021/07/24 00:47:43;;;;;;;6.97;3.10;;;;;;;17.45;60.44;98761.59;5030522;28;20053;-67
2021/07/24 00:50:29;;;;;;;5.53;3.28;;;;;;;17.54;60.57;98787.16;5031592;28;20418;-67
2021/07/24 00:53:00;;;;;;;6.10;3.13;;;;;;;17.49;60.55;98780.78;5013859;28;20049;-68
2021/07/24 00:55:26;;;;;;;7.35;3.25;;;;;;;17.45;60.69;98777.72;5030522;28;20041;-67
2021/07/24 00:57:52;;;;;;;9.38;3.25;;;;;;;17.38;60.96;98782.31;5030474;28;20037;-68
2021/07/24 01:00:18;;;;;;;7.32;3.80;;;;;;;17.34;61.07;98781.13;5031643;28;20080;-67
2021/07/24 01:02:44;;;;;;;5.30;3.30;;;;;;;17.22;61.28;98768.66;5030289;28;20049;-67
2021/07/24 01:05:11;;;;;;;5.88;3.60;;;;;;;17.18;61.75;98767.44;5031213;28;20037;-67
2021/07/24 01:07:39;;;;;;;7.60;3.88;;;;;;;17.21;61.97;98789.28;5030194;28;20037;-67
2021/07/24 01:10:06;;;;;;;6.50;3.15;;;;;;;17.17;62.00;98784.59;5030129;28;20120;-67
2021/07/24 01:12:33;;;;;;;7.40;3.63;;;;;;;17.09;62.39;98787.53;5030272;28;20041;-67
2021/07/24 01:15:02;;;;;;;6.38;3.33;;;;;;;17.04;62.60;98785.53;5030185;28;20072;-67
2021/07/24 01:17:29;;;;;;;7.88;3.38;;;;;;;16.98;62.46;98786.41;5031397;28;20041;-67
2021/07/24 01:19:56;;;;;;;7.63;3.10;;;;;;;16.88;62.58;98774.53;5030052;28;20064;-67
2021/07/24 01:22:26;;;;;;;8.95;2.97;;;;;;;16.90;63.33;98799.28;4997484;28;20381;-68
2021/07/24 01:24:53;;;;;;;6.75;3.22;;;;;;;16.82;62.81;98793.13;5030002;28;20377;-67
2021/07/24 01:27:18;;;;;;;7.32;2.83;;;;;;;16.76;63.60;98801.22;4997334;28;20049;-67
2021/07/24 01:29:44;;;;;;;5.45;3.17;;;;;;;16.69;63.42;98803.97;5029826;28;20049;-67
2021/07/24 01:32:17;;;;;;;3.30;2.80;;;;;;;16.49;63.75;98779.16;5014416;28;20069;-67
2021/07/24 01:34:46;;;;;;;4.38;2.70;;;;;;;16.57;63.71;98811.06;5030005;28;20083;-67
2021/07/24 01:37:13;;;;;;;5.30;2.90;;;;;;;16.51;63.55;98803.84;5031068;28;20052;-67
2021/07/24 01:39:39;;;;;;;10.73;3.33;;;;;;;16.52;63.88;98813.56;5029857;28;20485;-67
2021/07/24 01:42:06;;;;;;;5.25;2.92;;;;;;;16.40;64.16;98793.81;5030311;28;20025;-67
2021/07/24 01:44:40;;;;;;;8.48;3.22;;;;;;;16.49;64.21;98818.53;5030492;28;20033;-67
2021/07/24 01:47:06;;;;;;;5.45;3.13;;;;;;;16.43;64.06;98803.28;5030001;28;20072;-67
2021/07/24 01:52:46;;;;;;;6.53;3.05;;;;;;;16.45;64.13;98806.59;5031389;28;20044;-67
2021/07/24 01:55:22;;;;;;;5.05;2.90;;;;;;;16.29;64.45;98791.81;5029986;28;20476;-67
2021/07/24 01:57:56;;;;;;;6.40;2.92;;;;;;;16.40;64.35;98817.94;5014766;28;20048;-68
2021/07/24 02:00:24;;;;;;;3.95;3.00;;;;;;;16.38;64.53;98816.50;5014163;28;20033;-68
2021/07/24 02:03:07;;;;;;;6.45;3.28;;;;;;;16.39;64.90;98816.28;5030145;28;20071;-67
2021/07/24 02:06:12;;;;;;;7.15;3.53;;;;;;;16.42;65.20;98828.44;5048524;28;20044;-67
2021/07/24 02:08:50;;;;;;;13.20;3.88;;;;;;;16.38;65.27;98819.16;5029498;28;20107;-67
2021/07/24 02:11:18;;;;;;;7.55;3.40;;;;;;;16.48;65.12;98835.66;5029667;28;20091;-67
2021/07/24 02:13:47;;;;;;;7.85;3.47;;;;;;;16.51;65.28;98833.34;5013213;28;20645;-67
2021/07/24 02:16:14;;;;;;;10.60;4.13;;;;;;;16.56;65.20;98840.75;5029332;28;20117;-67
2021/07/24 02:18:40;;;;;;;8.10;3.33;;;;;;;16.59;64.93;98834.97;5029577;28;20064;-67
2021/07/24 02:21:18;;;;;;;6.28;3.90;;;;;;;16.53;64.87;98825.91;5029312;28;20088;-68
2021/07/24 02:23:45;;;;;;;6.22;3.25;;;;;;;16.60;64.65;98817.84;5030804;28;20507;-67
2021/07/24 02:26:12;;;;;;;6.22;3.10;;;;;;;16.74;64.29;98833.59;5012970;28;20109;-67
2021/07/24 02:28:39;;;;;;;15.27;3.65;;;;;;;16.87;64.30;98838.06;5030646;28;20075;-67
2021/07/24 02:31:05;;;;;;;8.07;3.83;;;;;;;16.93;64.14;98839.06;5030518;28;20132;-68
2021/07/24 02:33:32;;;;;;;5.15;3.58;;;;;;;16.94;63.94;98841.53;5030645;28;20120;-68
2021/07/24 02:36:01;;;;;;;4.20;3.42;;;;;;;17.00;63.80;98843.34;5030381;28;20033;-68
2021/07/24 02:38:29;;;;;;;7.20;3.70;;;;;;;17.03;64.13;98850.13;5034047;28;20381;-68
2021/07/24 02:40:55;;;;;;;6.50;3.40;;;;;;;16.98;64.04;98828.50;5034377;28;20041;-68
2021/07/24 02:43:21;;;;;;;5.20;3.20;;;;;;;17.10;63.63;98843.66;5016637;28;20060;-67
2021/07/24 02:45:47;;;;;;;15.73;3.50;;;;;;;17.06;63.36;98833.59;5016349;28;20175;-67
2021/07/24 02:48:14;;;;;;;8.43;3.40;;;;;;;17.09;63.01;98841.19;5032616;28;20598;-67
2021/07/24 02:50:53;;;;;;;7.53;3.28;;;;;;;17.23;63.20;98857.00;5018907;28;20061;-67
2021/07/24 02:53:19;;;;;;;5.68;3.40;;;;;;;17.27;63.38;98860.03;5032737;28;20545;-67
2021/07/24 02:55:45;;;;;;;7.50;3.40;;;;;;;17.28;63.17;98859.00;5032730;28;20124;-67
2021/07/24 02:58:11;;;;;;;6.47;3.53;;;;;;;17.22;63.16;98843.78;5032381;28;20033;-67
2021/07/24 03:00:37;;;;;;;9.38;3.70;;;;;;;17.28;63.13;98843.75;5032612;28;20034;-67
2021/07/24 03:03:03;;;;;;;7.45;3.80;;;;;;;17.44;63.21;98866.53;5032497;28;20040;-67
2021/07/24 03:05:28;;;;;;;7.20;4.20;;;;;;;17.42;63.40;98869.41;5032340;28;20033;-67
2021/07/24 03:07:54;;;;;;;7.05;3.90;;;;;;;17.43;63.25;98873.75;5033855;28;20477;-66
2021/07/24 03:10:20;;;;;;;14.75;4.13;;;;;;;17.36;62.95;98866.78;5033500;28;20052;-67
2021/07/24 03:12:46;;;;;;;7.57;3.75;;;;;;;17.48;63.04;98873.13;5032410;28;20452;-67
2021/07/24 03:15:11;;;;;;;6.68;4.22;;;;;;;17.38;62.95;98853.94;5032253;28;20040;-68
2021/07/24 03:17:37;;;;;;;5.85;3.65;;;;;;;17.52;62.64;98875.13;5033422;28;20417;-68
2021/07/24 03:20:05;;;;;;;10.60;3.90;;;;;;;17.41;62.43;98856.19;5032170;28;20048;-67
2021/07/24 03:22:31;;;;;;;7.82;3.55;;;;;;;17.54;62.39;98872.22;5032328;28;20048;-68
2021/07/24 03:24:57;;;;;;;5.80;3.63;;;;;;;17.60;62.24;98882.91;5032353;28;20037;-68
2021/07/24 03:27:23;;;;;;;17.40;3.97;;;;;;;17.61;62.31;98879.19;5033069;28;20045;-67
2021/07/24 03:29:48;;;;;;;8.02;3.50;;;;;;;17.55;62.10;98857.75;5015523;28;20060;-68
2021/07/24 03:32:14;;;;;;;6.90;3.75;;;;;;;17.76;62.17;98886.91;5031869;28;20038;-68
2021/07/24 03:34:40;;;;;;;7.78;3.53;;;;;;;17.79;62.40;98886.47;5033228;28;20041;-68
2021/07/24 03:37:06;;;;;;;5.00;3.33;;;;;;;17.87;62.55;98888.81;5033071;28;20103;-68
2021/07/24 03:39:31;;;;;;;8.13;3.50;;;;;;;17.83;61.65;98866.97;5031952;28;20083;-68
2021/07/24 03:41:57;;;;;;;7.32;3.65;;;;;;;17.97;61.04;98886.47;4999292;28;20048;-67
2021/07/24 03:44:23;;;;;;;10.15;3.40;;;;;;;18.04;60.87;98896.09;5031734;28;20477;-67
2021/07/24 03:46:49;;;;;;;12.82;3.38;;;;;;;18.06;60.77;98895.88;5015058;28;20033;-67
2021/07/24 03:49:14;;;;;;;8.93;3.50;;;;;;;18.11;60.97;98899.50;5032821;28;20087;-68
2021/07/24 03:51:40;;;;;;;9.10;3.50;;;;;;;18.10;60.64;98894.38;5015269;28;20387;-68
2021/07/24 03:54:06;;;;;;;8.98;3.53;;;;;;;18.24;60.67;98901.22;5015164;28;20034;-68
2021/07/24 03:56:31;;;;;;;6.75;3.20;;;;;;;18.28;60.47;98907.81;5032662;28;20034;-68
2021/07/24 03:58:57;;;;;;;3.75;3.03;;;;;;;18.36;60.08;98911.00;5015313;28;20072;-67
2021/07/24 04:01:26;;;;;;;8.02;3.47;;;;;;;18.43;59.55;98917.16;5031341;28;20041;-68
2021/07/24 04:03:52;;;;;;;8.27;3.58;;;;;;;18.54;59.73;98912.91;5031415;28;20103;-67
2021/07/24 04:06:25;;;;;;;6.47;3.63;;;;;;;18.61;59.33;98908.25;5031101;28;20041;-68
2021/07/24 04:08:55;;;;;;;12.52;3.30;;;;;;;18.59;58.93;98904.97;5031323;28;20040;-67
2021/07/24 04:11:21;;;;;;;9.52;3.70;;;;;;;18.69;58.72;98921.41;5031128;28;20037;-67
2021/07/24 04:13:47;;;;;;;6.78;3.33;;;;;;;18.78;58.38;98925.41;5031212;28;20090;-67
2021/07/24 04:16:14;;;;;;;8.90;3.45;;;;;;;18.88;58.01;98930.25;5030987;28;20050;-67
2021/07/24 04:18:40;;;;;;;6.75;3.30;;;;;;;18.99;57.28;98938.34;5031012;28;20049;-67
2021/07/24 04:21:06;;;;;;;6.22;3.10;;;;;;;19.06;57.12;98933.72;5032022;28;20026;-68
2021/07/24 04:23:31;;;;;;;9.75;3.20;;;;;;;19.13;57.20;98941.66;5031268;28;20033;-68
2021/07/24 04:25:57;;;;;;;8.65;3.25;;;;;;;19.07;57.26;98929.97;5031128;28;20124;-67
2021/07/24 04:28:23;;;;;;;7.18;3.10;;;;;;;19.26;57.19;98946.88;5030760;28;20033;-68
2021/07/24 04:30:49;;;;;;;8.38;2.92;;;;;;;19.40;56.31;98954.56;5031850;28;20091;-68
2021/07/24 04:33:15;;;;;;;8.07;3.35;;;;;;;19.46;55.80;98928.56;5031860;28;20045;-68
2021/07/24 04:35:48;;;;;;;9.73;3.53;;;;;;;19.73;55.08;98954.00;5030750;28;20120;-68
2021/07/24 04:38:14;;;;;;;7.88;3.45;;;;;;;19.85;54.30;98958.34;5030549;28;20079;-68
2021/07/24 04:40:40;;;;;;;9.80;3.50;;;;;;;19.93;53.85;98946.41;5030691;28;20033;-68
2021/07/24 04:43:06;;;;;;;7.80;3.33;;;;;;;20.17;53.09;98968.81;5031857;28;20041;-68
2021/07/24 04:45:32;;;;;;;6.40;3.10;;;;;;;20.33;52.89;98976.22;5031994;28;20135;-68
2021/07/24 04:47:57;;;;;;;5.97;2.90;;;;;;;20.49;52.01;98978.16;5031716;28;20473;-68
2021/07/24 04:50:23;;;;;;;6.88;2.67;;;;;;;20.62;49.71;98972.53;5013899;28;20041;-68
2021/07/24 04:52:49;;;;;;;3.60;2.38;;;;;;;20.62;49.18;98956.34;5030438;28;20041;-68
2021/07/24 04:55:15;;;;;;;4.60;2.47;;;;;;;20.81;48.58;98969.41;5030304;28;20052;-68
2021/07/24 04:57:42;;;;;;;5.15;2.50;;;;;;;20.88;47.86;98967.38;5030421;28;20420;-68
2021/07/24 05:00:08;;;;;;;7.63;2.30;;;;;;;20.96;47.58;98966.19;5030972;28;20026;-68
2021/07/24 05:02:34;;;;;;;4.00;2.10;;;;;;;20.98;47.42;98969.50;5030557;28;20042;-67
2021/07/24 05:05:00;;;;;;;7.18;2.20;;;;;;;20.97;47.44;98973.25;5031795;28;20045;-67
2021/07/24 05:07:29;;;;;;;7.38;2.25;;;;;;;20.98;46.94;98974.88;5031276;28;20043;-67
2021/07/24 05:09:54;;;;;;;3.72;2.25;;;;;;;20.92;46.27;98959.63;5031366;28;20231;-67
2021/07/24 05:12:20;;;;;;;3.70;1.92;;;;;;;21.03;45.87;98986.63;5031194;28;20037;-67
2021/07/24 05:14:46;;;;;;;5.78;2.03;;;;;;;21.08;46.01;98988.59;5031348;28;20106;-67
2021/07/24 05:17:13;;;;;;;6.97;2.20;;;;;;;21.07;45.76;98968.03;5031231;28;20029;-67
2021/07/24 05:19:43;;;;;;;3.78;2.10;;;;;;;21.23;45.47;98986.97;5013719;28;20037;-67
2021/07/24 05:22:10;;;;;;;8.63;1.70;;;;;;;21.23;45.17;98968.06;5013576;28;20037;-67
2021/07/24 05:24:37;;;;;;;3.47;2.00;;;;;;;21.48;45.26;98992.06;5031005;28;20042;-68
2021/07/24 05:27:04;;;;;;;4.35;2.08;;;;;;;21.56;44.66;98970.00;5031372;28;20038;-67
2021/07/24 05:29:30;;;;;;;5.57;2.40;;;;;;;21.83;44.18;98994.56;5031003;28;20045;-67
2021/07/24 05:31:56;;;;;;;5.90;2.20;;;;;;;22.04;43.76;98993.81;5031167;28;20565;-67
2021/07/24 05:34:22;;;;;;;8.38;2.30;;;;;;;22.20;43.12;99001.09;5029848;28;20393;-67
2021/07/24 05:36:48;;;;;;;5.80;2.17;;;;;;;22.38;42.37;98996.22;5031042;28;20037;-67
2021/07/24 05:39:14;;;;;;;5.95;1.98;;;;;;;22.56;42.15;99000.53;5029700;28;20041;-68
2021/07/24 05:41:40;;;;;;;5.75;1.75;;;;;;;22.63;41.26;98979.53;5029861;28;20370;-68
2021/07/24 05:44:05;;;;;;;3.97;2.25;;;;;;;22.78;41.17;98983.28;5030076;28;20030;-67
2021/07/24 05:46:31;;;;;;;5.53;2.00;;;;;;;22.96;40.95;99001.91;5029734;28;20045;-68
2021/07/24 05:48:57;;;;;;;5.65;2.20;;;;;;;23.10;40.70;99003.16;5013330;28;20069;-67
2021/07/24 05:51:23;;;;;;;3.17;2.03;;;;;;;23.24;39.49;99011.69;5030841;28;20501;-68
2021/07/24 05:53:48;;;;;;;7.85;1.65;;;;;;;23.43;37.88;99015.72;5030891;28;20034;-68
2021/07/24 05:56:14;;;;;;;6.93;1.65;;;;;;;23.54;36.00;98986.81;5030683;28;20041;-68
2021/07/24 05:58:40;;;;;;;2.25;1.50;;;;;;;23.74;35.76;99003.28;5030900;28;20374;-68
2021/07/24 06:01:12;;;;;;;2.50;1.63;;;;;;;23.79;35.30;99001.41;5029978;28;20128;-67
2021/07/24 06:03:39;;;;;;;4.65;1.30;;;;;;;23.84;34.77;99012.31;5029875;28;20469;-68
2021/07/24 06:06:04;;;;;;;6.43;1.40;;;;;;;23.93;33.97;98999.09;5029792;28;20080;-67
2021/07/24 06:08:30;;;;;;;3.22;1.20;;;;;;;24.05;34.28;99007.91;5030631;28;20060;-68
2021/07/24 06:11:00;;;;;;;3.15;1.50;;;;;;;24.16;33.67;99007.72;5032464;28;20424;-67
2021/07/24 06:13:27;;;;;;;4.72;1.65;;;;;;;24.16;33.73;99004.19;5033502;28;20037;-68
2021/07/24 06:15:52;;;;;;;2.40;1.60;;;;;;;24.06;33.91;98993.25;5034516;28;20038;-67
2021/07/24 06:18:19;;;;;;;1.90;1.50;;;;;;;24.16;33.78;98990.59;5034432;28;20056;-67
2021/07/24 06:20:47;;;;;;;6.82;2.00;;;;;;;24.46;33.78;99012.53;5033347;28;20150;-68
2021/07/24 06:23:13;;;;;;;4.93;1.30;;;;;;;24.60;33.23;99011.78;5033212;28;20094;-68
2021/07/24 06:25:39;;;;;;;4.75;1.73;;;;;;;24.74;33.83;99021.13;5033301;28;20033;-68
2021/07/24 06:28:05;;;;;;;6.07;1.60;;;;;;;24.89;33.14;99012.25;5034607;28;20191;-68
2021/07/24 06:30:30;;;;;;;3.72;1.65;;;;;;;24.92;32.75;99004.38;5032769;28;20686;-68
2021/07/24 06:32:56;;;;;;;5.50;1.63;;;;;;;24.92;32.89;99007.06;5033065;28;20063;-67
2021/07/24 06:35:22;;;;;;;3.92;1.77;;;;;;;25.07;32.89;98998.19;5016431;28;20367;-67
2021/07/24 06:37:47;;;;;;;8.05;1.45;;;;;;;25.26;30.63;99004.78;5034306;28;20052;-67
2021/07/24 06:40:14;;;;;;;6.38;1.58;;;;;;;25.42;30.79;99014.63;5033861;28;20033;-68
2021/07/24 06:42:39;;;;;;;4.97;1.77;;;;;;;25.74;30.64;99030.72;5034396;28;20198;-68
2021/07/24 06:45:06;;;;;;;3.30;1.67;;;;;;;25.94;30.21;99034.25;5034182;28;20516;-68
2021/07/24 06:47:31;;;;;;;2.70;1.50;;;;;;;25.99;28.85;99028.84;5033627;28;20034;-67
2021/07/24 06:49:57;;;;;;;5.70;1.75;;;;;;;26.04;28.57;99026.16;5032805;28;20500;-68
2021/07/24 06:52:23;;;;;;;4.30;1.70;;;;;;;26.11;28.31;99025.84;5033784;28;20029;-68
2021/07/24 06:54:48;;;;;;;8.02;1.92;;;;;;;26.03;28.86;99032.66;5033747;28;20029;-68
2021/07/24 06:57:14;;;;;;;4.82;1.77;;;;;;;25.94;29.25;99030.75;5033668;28;20392;-68
2021/07/24 06:59:40;;;;;;;5.75;1.65;;;;;;;25.67;29.35;99020.09;5033792;28;20033;-68
2021/07/24 07:02:05;;;;;;;2.30;1.50;;;;;;;25.55;29.56;99040.47;5032468;28;20037;-67
2021/07/24 07:04:32;;;;;;;4.93;1.40;;;;;;;25.35;29.66;99021.41;5033607;28;20038;-68
2021/07/24 07:06:57;;;;;;;1.95;1.40;;;;;;;25.16;29.74;99020.22;5033588;28;20043;-68
2021/07/24 07:09:23;;;;;;;4.70;1.40;;;;;;;25.15;29.67;99030.28;5032342;28;20408;-68
2021/07/24 07:11:49;;;;;;;4.15;1.40;;;;;;;25.25;28.63;99037.66;5033631;28;20033;-68
2021/07/24 07:14:15;;;;;;;3.25;1.40;;;;;;;25.29;29.14;99039.56;5032122;28;20032;-68
2021/07/24 07:16:40;;;;;;;4.47;2.00;;;;;;;25.30;29.00;99018.63;5032299;28;20041;-68
2021/07/24 07:19:06;;;;;;;7.45;1.52;;;;;;;25.45;28.22;99024.16;5032252;28;20057;-67
2021/07/24 07:21:32;;;;;;;4.38;1.30;;;;;;;25.56;27.55;99040.22;5015196;28;20037;-67
2021/07/24 07:23:58;;;;;;;6.80;1.50;;;;;;;25.81;27.11;99037.53;5032113;28;20092;-67
2021/07/24 07:26:25;;;;;;;2.92;1.55;;;;;;;26.39;26.37;99037.00;5031787;28;20032;-68
2021/07/24 07:28:52;;;;;;;5.43;1.40;;;;;;;27.37;25.39;99054.44;5031987;28;20133;-68
2021/07/24 07:31:18;;;;;;;4.88;1.38;;;;;;;28.57;23.46;99032.84;5031911;28;20033;-68
2021/07/24 07:33:43;;;;;;;2.80;1.38;;;;;;;29.47;21.92;99037.22;5031781;28;20037;-68
2021/07/24 07:36:09;;;;;;;5.97;1.30;;;;;;;29.58;22.13;99044.97;5015686;28;20037;-68
2021/07/24 07:38:35;;;;;;;4.22;1.40;;;;;;;29.50;21.76;99048.41;5032835;28;20033;-68
2021/07/24 07:41:00;;;;;;;3.47;1.17;;;;;;;29.51;21.45;99050.00;5031683;28;20041;-68
2021/07/24 07:43:26;;;;;;;6.00;1.20;;;;;;;31.08;19.41;99043.53;5015054;28;20450;-68
2021/07/24 07:45:52;;;;;;;6.90;1.02;;;;;;;31.49;18.63;99033.34;5014925;28;20036;-68
2021/07/24 07:48:17;;;;;;;7.88;1.75;;;;;;;31.73;18.42;99042.13;5032588;28;20048;-68
2021/07/24 07:50:43;;;;;;;2.03;1.27;;;;;;;31.09;19.08;99037.75;5032918;28;20025;-68
2021/07/24 07:53:10;;;;;;;2.78;1.40;;;;;;;30.37;19.87;99043.25;5031703;28;20038;-68
2021/07/24 07:55:36;;;;;;;4.18;1.27;;;;;;;30.45;20.52;99046.09;5014856;28;20501;-68
2021/07/24 07:58:10;;;;;;;2.75;1.15;;;;;;;31.65;18.64;99048.34;5032589;28;20061;-68
2021/07/24 08:00:36;;;;;;;5.30;1.60;;;;;;;32.93;17.64;99053.97;5032317;28;20037;-68
2021/07/24 08:03:02;;;;;;;4.03;1.38;;;;;;;35.12;15.05;99056.25;5031195;28;20029;-68
2021/07/24 08:05:28;;;;;;;10.60;1.63;;;;;;;37.23;13.51;99056.69;5014574;28;20037;-68
2021/07/24 08:07:53;;;;;;;6.53;1.48;;;;;;;39.11;11.61;99055.41;4982331;28;20048;-69
2021/07/24 08:10:19;;;;;;;6.68;1.25;;;;;;;38.78;11.75;99067.66;5031014;28;20387;-68
2021/07/24 08:12:46;;;;;;;2.90;1.23;;;;;;;39.59;10.85;99063.31;5032375;28;20060;-70
2021/07/24 08:15:12;;;;;;;4.80;1.92;;;;;;;40.75;10.01;99068.59;5014769;28;20030;-68
2021/07/24 08:17:38;;;;;;;6.13;1.42;;;;;;;42.09;9.00;99054.78;5032159;28;20531;-69
2021/07/24 08:20:08;;;;;;;1.25;0.93;;;;;;;42.92;8.50;99062.47;5014591;28;20371;-69
2021/07/24 08:22:34;;;;;;;5.28;1.33;;;;;;;41.45;9.07;99065.00;5030850;28;20134;-68
2021/07/24 08:25:02;;;;;;;4.57;1.48;;;;;;;39.32;10.57;99059.50;5030962;28;20044;-69
2021/07/24 08:27:28;;;;;;;2.65;1.20;;;;;;;38.67;10.52;99063.78;5014308;28;20116;-68
2021/07/24 08:29:54;;;;;;;5.05;1.52;;;;;;;36.87;12.38;99058.59;5014216;28;20128;-68
2021/07/24 08:32:20;;;;;;;7.95;1.20;;;;;;;35.39;13.86;99060.50;5031915;28;20038;-68
2021/07/24 08:34:50;;;;;;;9.15;1.75;;;;;;;33.97;15.10;99061.03;5030275;28;20036;-67
2021/07/24 08:37:16;;;;;;;;;;;;;;;34.84;14.47;99066.09;5031276;28;20045;-69
2021/07/24 08:39:41;;;;;;;7.60;1.27;;;;;;;36.85;13.04;99055.34;5030752;28;19939;-68
2021/07/24 08:42:07;;;;;;;5.45;1.50;;;;;;;39.12;11.19;99071.69;5014068;28;20104;-68
2021/07/24 08:44:36;;;;;;;6.97;1.70;;;;;;;41.07;9.89;99073.50;5031669;28;20036;-68
2021/07/24 08:47:07;;;;;;;16.75;2.78;;;;;;;42.03;8.76;99078.63;5030586;28;20044;-69
2021/07/24 08:49:32;;;;;;;;;;;;;;;43.21;7.88;99072.75;5014468;28;20029;-69
2021/07/24 08:51:59;;;;;;;17.63;2.03;;;;;;;42.37;8.52;99071.88;5014083;28;19916;-69
2021/07/24 08:54:25;;;;;;;7.80;1.80;;;;;;;40.89;9.68;99074.41;5031530;28;20037;-69
2021/07/24 08:56:51;;;;;;;3.03;1.08;;;;;;;39.67;10.07;99067.88;5030482;28;20079;-69
2021/07/24 08:59:18;;;;;;;9.23;1.67;;;;;;;38.14;11.23;99069.00;5030396;28;20030;-69
2021/07/24 09:01:51;;;;;;;7.10;1.73;;;;;;;38.11;11.20;99078.84;5031547;28;20464;-69
2021/07/24 09:04:18;;;;;;;7.07;1.33;;;;;;;39.81;9.87;99068.19;5031644;28;20029;-69
2021/07/24 09:06:43;;;;;;;2.80;1.10;;;;;;;41.69;8.66;99070.16;5031654;28;20524;-69
2021/07/24 09:09:10;;;;;;;12.55;2.17;;;;;;;43.38;7.41;99074.09;5031484;28;20026;-69
2021/07/24 09:11:36;;;;;;;15.30;1.67;;;;;;;43.89;7.41;99072.03;5030164;28;20049;-69
2021/07/24 09:14:02;;;;;;;10.38;2.65;;;;;;;42.62;8.17;99076.56;5030073;28;20030;-68
2021/07/24 09:16:28;;;;;;;8.40;1.80;;;;;;;43.39;7.88;99081.25;5031091;28;20504;-69
2021/07/24 09:18:57;;;;;;;8.45;2.15;;;;;;;44.76;6.81;99076.38;5030196;28;20094;-69
2021/07/24 09:21:23;;;;;;;28.05;2.80;;;;;;;44.68;6.65;99070.78;5030022;28;20144;-70
2021/07/24 09:23:49;;;;;;;10.80;3.15;;;;;;;44.25;6.73;99071.81;5013706;28;20128;-69
2021/07/24 09:26:36;;;;;;;3.75;1.98;;;;;;;42.45;7.86;99070.78;5013715;28;20044;-69
2021/07/24 09:29:12;;;;;;;19.13;3.38;;;;;;;42.42;8.17;99069.56;5013922;28;20116;-69
2021/07/24 09:31:39;;;;;;;12.45;2.50;;;;;;;41.26;9.15;99065.09;5029795;28;20044;-69
2021/07/24 09:34:05;;;;;;;9.35;1.85;;;;;;;40.48;9.34;99072.41;5031121;28;20047;-69
2021/07/24 09:36:32;;;;;;;10.32;1.45;;;;;;;41.02;8.80;99070.25;5031032;28;20366;-69
2021/07/24 09:39:15;;;;;;;3.60;1.27;;;;;;;39.51;9.69;99078.22;5031124;28;20166;-69
2021/07/24 09:41:45;;;;;;;6.03;1.30;;;;;;;37.90;11.23;99069.88;5029819;28;20052;-69
2021/07/24 09:44:12;;;;;;;3.65;1.30;;;;;;;38.97;10.35;99058.59;5013766;28;20128;-68
2021/07/24 09:46:38;;;;;;;8.75;1.30;;;;;;;38.35;10.95;99075.16;5033944;28;20285;-69
2021/07/24 09:49:16;;;;;;;4.40;1.17;;;;;;;37.61;11.33;99072.94;5033856;28;20080;-69
2021/07/24 09:51:44;;;;;;;5.88;1.63;;;;;;;38.15;11.52;99071.41;5017251;28;20176;-68
2021/07/24 09:54:27;;;;;;;3.03;1.23;;;;;;;37.41;11.68;99082.19;5034965;28;20038;-68
2021/07/24 09:56:56;;;;;;;6.10;1.60;;;;;;;36.19;12.44;99075.88;5017269;28;20033;-69
2021/07/24 09:59:31;;;;;;;6.05;1.90;;;;;;;35.88;12.89;99081.00;5000864;28;20079;-69
2021/07/24 10:02:03;;;;;;;3.92;1.23;;;;;;;37.94;11.33;99084.66;5017375;28;20033;-69
2021/07/24 10:04:36;;;;;;;3.88;1.20;;;;;;;39.79;9.87;99062.19;5034639;28;20037;-68
2021/07/24 10:07:04;;;;;;;3.42;1.00;;;;;;;39.49;9.73;99080.59;5034748;28;20040;-69
2021/07/24 10:09:36;;;;;;;3.30;1.20;;;;;;;38.84;9.75;99078.50;5033570;28;20044;-69
2021/07/24 10:12:04;;;;;;;3.72;0.75;;;;;;;37.24;10.41;99066.59;5033847;28;20095;-69
2021/07/24 10:14:30;;;;;;;4.40;1.30;;;;;;;37.29;10.68;99068.31;5034653;28;20481;-69
2021/07/24 10:16:57;;;;;;;1.95;0.90;;;;;;;37.90;10.57;99078.19;5034682;28;20037;-69
2021/07/24 10:19:24;;;;;;;2.42;1.40;;;;;;;37.03;11.23;99076.13;5034867;28;20115;-69
2021/07/24 10:21:52;;;;;;;3.58;1.13;;;;;;;35.40;12.47;99082.28;5033471;28;20470;-68
2021/07/24 10:24:18;;;;;;;5.20;1.13;;;;;;;33.87;13.81;99080.63;5033478;28;20033;-69
2021/07/24 10:27:12;;;;;;;4.82;0.70;;;;;;;32.84;15.30;99080.63;5016635;28;20404;-68
2021/07/24 10:29:57;;;;;;;2.20;0.90;;;;;;;32.00;16.04;99085.22;5016487;28;20061;-68
2021/07/24 10:32:24;;;;;;;2.45;1.08;;;;;;;31.43;16.97;99088.69;5034321;28;20044;-69
2021/07/24 10:34:51;;;;;;;4.07;1.00;;;;;;;30.91;17.30;99089.97;5033349;28;20042;-68
2021/07/24 10:37:44;;;;;;;3.17;1.00;;;;;;;30.31;18.21;99091.00;5034187;28;20183;-68
2021/07/24 10:40:16;;;;;;;9.20;1.40;;;;;;;29.79;18.51;99097.56;5034085;28;20043;-68
2021/07/24 10:42:49;;;;;;;3.08;1.15;;;;;;;29.33;19.54;99091.84;5032726;28;20115;-68
2021/07/24 10:45:45;;;;;;;2.65;1.20;;;;;;;28.65;20.71;99090.41;5032844;28;20044;-68
2021/07/24 10:48:14;;;;;;;2.03;1.30;;;;;;;28.17;21.49;99096.78;5033970;28;20037;-68
2021/07/24 10:50:55;;;;;;;7.35;1.20;;;;;;;27.84;21.88;99105.75;5032639;28;20084;-68
2021/07/24 10:53:21;;;;;;;2.50;1.10;;;;;;;27.70;21.87;99102.00;5034115;28;20033;-68
2021/07/24 10:55:51;;;;;;;2.25;1.20;;;;;;;27.62;21.99;99108.06;5033654;28;20029;-68
2021/07/24 10:58:19;;;;;;;9.27;1.02;;;;;;;27.59;22.06;99101.25;5015736;28;20476;-68
2021/07/24 11:00:51;;;;;;;2.95;1.20;;;;;;;27.77;22.22;99108.78;5016063;28;20050;-68
2021/07/24 11:03:37;;;;;;;10.90;1.77;;;;;;;28.48;22.13;99111.88;5033704;28;20163;-68
2021/07/24 11:06:26;;;;;;;9.63;1.50;;;;;;;29.22;21.30;99109.50;5033709;28;20044;-68
2021/07/24 11:08:58;;;;;;;3.78;1.80;;;;;;;29.61;20.84;99121.03;5033309;28;20469;-68
2021/07/24 11:11:43;;;;;;;6.72;1.17;;;;;;;30.05;20.36;99128.94;5032479;28;20045;-69
2021/07/24 11:14:34;;;;;;;11.32;1.40;;;;;;;30.35;19.83;99124.94;5032398;28;20068;-68
2021/07/24 11:19:36;;;;;;;2.35;1.10;;;;;;;30.82;18.42;99138.41;5015594;28;20042;-71
2021/07/24 11:22:18;;;;;;;6.38;1.10;;;;;;;31.44;17.57;99132.28;5032243;28;20041;-69
2021/07/24 11:24:50;;;;;;;1.63;1.00;;;;;;;32.04;16.90;99122.75;5033244;28;20389;-69
2021/07/24 11:27:32;;;;;;;1.25;1.00;;;;;;;32.42;16.25;99135.06;5033048;28;20042;-69
2021/07/24 11:30:04;;;;;;;4.82;1.50;;;;;;;32.72;15.66;99139.78;5031884;28;20045;-69
2021/07/24 11:32:32;;;;;;;5.28;1.52;;;;;;;32.55;15.80;99128.66;5033086;28;20489;-69
2021/07/24 11:34:59;;;;;;;4.38;0.90;;;;;;;32.17;15.67;99146.63;5031960;28;20068;-69
2021/07/24 11:37:42;;;;;;;2.20;0.82;;;;;;;31.38;16.29;99147.25;5033294;28;20049;-68
2021/07/24 11:40:15;;;;;;;2.97;1.00;;;;;;;30.68;17.26;99137.53;5031657;28;20037;-68
2021/07/24 11:42:42;;;;;;;6.60;2.53;;;;;;;30.08;18.00;99135.72;5031703;28;20045;-68
2021/07/24 11:45:09;;;;;;;3.13;0.90;;;;;;;29.46;18.77;99123.16;5031683;28;20033;-68